Forside
METAR-TAF:

METAR-TAF

Lufthavne :

Djibouti, Djibouti

Breddekreds: 11-33N, længdekreds: 043-10E, højde: 49 m

Aktuelle vejr

Denne rapport blev lavet for 2 timer og 9 minutter siden, kl. 16:00 UTC
Vind 4 kt fra nordnordvest
Temperatur 35°C
Fugtighed 39%
Tryk 1004 hPa
Sigt: 8000 m
Nogle få skyer i en højde af 2300 ft
tåge/dis

METAR: HDAM 141600Z 34004KT 8000 HZ FEW023 35/19 Q1004

Tid: 21:09 (18:09 UTC)

Vejrudsigter

Denne rapport blev lavet for 1 time og 9 minutter siden, kl. 17:00 UTC
Foreløbig gælder fra 14 på 18 UTC til 15 på 18 UTC
Vind 3 kt fra varierende retninger
Sigt: 8000 m
tåge/dis
ændring
fra 15 på 00 UTC til 15 på 06 UTC
Vind 14 kt fra vest
Sigt: 8000 m
Nogle få skyer i en højde af 2300 ft
tåge/dis
ændring
fra 15 på 06 UTC til 15 på 12 UTC
Vind 10 kt fra vest
Sigt: 6000 m
ændring
fra 15 på 12 UTC til 15 på 15 UTC
Nogle få skyer i en højde af 3000 ft, Cumulonimbus.

TAF: HDAM 141700Z 1418/1518 VRB03KT 8000 HZ NSC BECMG 1500/1506 28014KT 8000 HZ FEW023 BECMG 1506/1512 26010KT 6000 HZ/BLDU NSC BECMG 1512/151508010KT FEW030CB

Vejrobservationer og prognoser fra mere end 4000 lufthavne (METAR og TAF).

De gule og røde prikker repræsenterer de meteorologiske stationer.

Flyt musen over at se navnet på stationen.

Så klik over at se vejr observationer og prognoser.

At skifte det kort: Klik på de grønne knapper med et sort kors for at zoome ind; på den grønne knap med en bindestreg for at zoome ud; eller på de grønne pile for tilstødende kort.


METAR-TAF: